sensor_id;sensor_type;location;lat;lon;timestamp;pressure;altitude;pressure_sealevel;temperature;humidity
22181;BME280;11256;50.830;12.834;2023-02-11T00:00:57;99209.09;;;2.42;65.64
22181;BME280;11256;50.830;12.834;2023-02-11T00:05:59;99200.56;;;2.32;65.92
22181;BME280;11256;50.830;12.834;2023-02-11T00:10:59;99210.63;;;2.30;65.72
22181;BME280;11256;50.830;12.834;2023-02-11T00:16:05;99187.81;;;2.34;65.84
22181;BME280;11256;50.830;12.834;2023-02-11T00:21:11;99222.59;;;2.34;66.29
22181;BME280;11256;50.830;12.834;2023-02-11T00:26:25;99202.22;;;2.33;66.41
22181;BME280;11256;50.830;12.834;2023-02-11T00:31:26;99201.16;;;2.27;66.19
22181;BME280;11256;50.830;12.834;2023-02-11T00:36:28;99196.34;;;2.23;66.63
22181;BME280;11256;50.830;12.834;2023-02-11T00:41:29;99178.03;;;2.20;65.95
22181;BME280;11256;50.830;12.834;2023-02-11T00:46:31;99167.97;;;2.22;66.63
22181;BME280;11256;50.830;12.834;2023-02-11T00:51:32;99163.72;;;2.27;66.19
22181;BME280;11256;50.830;12.834;2023-02-11T00:56:32;99151.13;;;2.21;66.78
22181;BME280;11256;50.830;12.834;2023-02-11T01:01:32;99134.63;;;2.18;66.54
22181;BME280;11256;50.830;12.834;2023-02-11T01:06:33;99109.47;;;2.12;67.37
22181;BME280;11256;50.830;12.834;2023-02-11T01:11:34;99099.22;;;2.16;67.17
22181;BME280;11256;50.830;12.834;2023-02-11T01:16:34;99102.53;;;2.18;66.89
22181;BME280;11256;50.830;12.834;2023-02-11T01:21:34;99102.34;;;2.19;67.33
22181;BME280;11256;50.830;12.834;2023-02-11T01:26:35;99102.66;;;2.10;67.09
22181;BME280;11256;50.830;12.834;2023-02-11T01:31:35;99114.50;;;2.22;67.11
22181;BME280;11256;50.830;12.834;2023-02-11T01:36:36;99122.91;;;2.19;67.07
22181;BME280;11256;50.830;12.834;2023-02-11T01:41:36;99109.13;;;2.22;67.80
22181;BME280;11256;50.830;12.834;2023-02-11T01:46:37;99075.41;;;2.21;67.34
22181;BME280;11256;50.830;12.834;2023-02-11T01:51:41;99087.38;;;2.25;67.40
22181;BME280;11256;50.830;12.834;2023-02-11T01:56:46;99074.63;;;2.27;67.16
22181;BME280;11256;50.830;12.834;2023-02-11T02:02:09;99064.34;;;2.24;67.64
22181;BME280;11256;50.830;12.834;2023-02-11T02:07:17;99062.28;;;2.26;67.62
22181;BME280;11256;50.830;12.834;2023-02-11T02:12:20;99063.88;;;2.20;67.17
22181;BME280;11256;50.830;12.834;2023-02-11T02:17:36;99073.59;;;2.28;68.07
22181;BME280;11256;50.830;12.834;2023-02-11T02:23:04;99072.81;;;2.27;67.75
22181;BME280;11256;50.830;12.834;2023-02-11T02:39:22;99061.69;;;2.30;67.89
22181;BME280;11256;50.830;12.834;2023-02-11T02:44:25;99040.53;;;2.29;67.50
22181;BME280;11256;50.830;12.834;2023-02-11T02:49:25;99057.44;;;2.36;67.74
22181;BME280;11256;50.830;12.834;2023-02-11T03:00:52;99051.69;;;2.39;67.95
22181;BME280;11256;50.830;12.834;2023-02-11T03:06:02;99050.44;;;2.35;68.37
22181;BME280;11256;50.830;12.834;2023-02-11T03:11:06;99042.66;;;2.40;68.06
22181;BME280;11256;50.830;12.834;2023-02-11T03:16:14;99040.19;;;2.45;68.07
22181;BME280;11256;50.830;12.834;2023-02-11T03:21:15;99010.16;;;2.43;67.94
22181;BME280;11256;50.830;12.834;2023-02-11T03:26:37;99013.56;;;2.58;67.52
22181;BME280;11256;50.830;12.834;2023-02-11T03:31:54;99015.31;;;2.44;67.45
22181;BME280;11256;50.830;12.834;2023-02-11T03:36:59;99001.75;;;2.46;67.75
22181;BME280;11256;50.830;12.834;2023-02-11T03:42:02;98998.72;;;2.55;67.86
22181;BME280;11256;50.830;12.834;2023-02-11T03:47:04;98997.50;;;2.58;68.10
22181;BME280;11256;50.830;12.834;2023-02-11T03:52:06;98977.13;;;2.57;67.67
22181;BME280;11256;50.830;12.834;2023-02-11T03:57:10;98983.09;;;2.59;67.72
22181;BME280;11256;50.830;12.834;2023-02-11T04:02:10;99003.28;;;2.61;67.90
22181;BME280;11256;50.830;12.834;2023-02-11T04:07:11;98999.50;;;2.49;67.52
22181;BME280;11256;50.830;12.834;2023-02-11T04:12:11;98997.09;;;2.61;67.80
22181;BME280;11256;50.830;12.834;2023-02-11T04:17:12;98988.50;;;2.72;68.40
22181;BME280;11256;50.830;12.834;2023-02-11T04:22:12;98986.00;;;2.64;67.83
22181;BME280;11256;50.830;12.834;2023-02-11T04:27:13;98985.44;;;2.75;67.62
22181;BME280;11256;50.830;12.834;2023-02-11T04:32:14;98979.47;;;2.73;68.18
22181;BME280;11256;50.830;12.834;2023-02-11T04:37:14;98975.75;;;2.74;67.80
22181;BME280;11256;50.830;12.834;2023-02-11T04:42:15;98965.47;;;2.77;68.47
22181;BME280;11256;50.830;12.834;2023-02-11T04:47:15;98973.72;;;2.76;68.47
22181;BME280;11256;50.830;12.834;2023-02-11T04:52:15;98989.16;;;2.80;67.92
22181;BME280;11256;50.830;12.834;2023-02-11T04:57:16;98971.25;;;2.81;68.01
22181;BME280;11256;50.830;12.834;2023-02-11T05:02:16;98997.00;;;2.82;68.14
22181;BME280;11256;50.830;12.834;2023-02-11T05:07:16;98995.56;;;2.86;68.02
22181;BME280;11256;50.830;12.834;2023-02-11T05:12:17;99004.22;;;2.81;68.43
22181;BME280;11256;50.830;12.834;2023-02-11T05:17:17;99009.16;;;2.78;68.02
22181;BME280;11256;50.830;12.834;2023-02-11T05:22:18;98997.63;;;2.84;68.28
22181;BME280;11256;50.830;12.834;2023-02-11T05:27:18;99008.34;;;2.84;68.60
22181;BME280;11256;50.830;12.834;2023-02-11T05:32:19;98987.31;;;2.81;68.53
22181;BME280;11256;50.830;12.834;2023-02-11T05:37:19;98991.88;;;2.87;68.36
22181;BME280;11256;50.830;12.834;2023-02-11T05:42:19;98990.69;;;2.96;68.37
22181;BME280;11256;50.830;12.834;2023-02-11T05:47:20;99003.84;;;2.91;68.54
22181;BME280;11256;50.830;12.834;2023-02-11T05:52:21;98996.03;;;2.96;68.37
22181;BME280;11256;50.830;12.834;2023-02-11T05:57:21;98994.81;;;2.98;68.16
22181;BME280;11256;50.830;12.834;2023-02-11T06:02:21;98989.88;;;3.02;68.22
22181;BME280;11256;50.830;12.834;2023-02-11T06:07:22;98990.31;;;3.05;68.33
22181;BME280;11256;50.830;12.834;2023-02-11T06:12:22;98982.84;;;2.94;68.32
22181;BME280;11256;50.830;12.834;2023-02-11T06:17:22;98987.44;;;3.07;68.08
22181;BME280;11256;50.830;12.834;2023-02-11T06:22:24;98994.03;;;3.11;68.67
22181;BME280;11256;50.830;12.834;2023-02-11T06:27:25;98991.13;;;3.12;68.51
22181;BME280;11256;50.830;12.834;2023-02-11T06:32:27;98996.72;;;3.11;68.33
22181;BME280;11256;50.830;12.834;2023-02-11T06:37:27;98984.09;;;3.05;68.19
22181;BME280;11256;50.830;12.834;2023-02-11T06:42:27;98990.72;;;3.09;68.42
22181;BME280;11256;50.830;12.834;2023-02-11T06:47:28;98977.94;;;3.04;68.13
22181;BME280;11256;50.830;12.834;2023-02-11T06:52:28;98978.41;;;3.14;68.54
22181;BME280;11256;50.830;12.834;2023-02-11T06:57:29;98990.34;;;3.25;68.68
22181;BME280;11256;50.830;12.834;2023-02-11T07:02:29;98976.34;;;3.23;68.74
22181;BME280;11256;50.830;12.834;2023-02-11T07:07:30;98981.91;;;3.21;68.57
22181;BME280;11256;50.830;12.834;2023-02-11T07:12:31;98972.66;;;3.24;68.63
22181;BME280;11256;50.830;12.834;2023-02-11T07:17:33;98984.59;;;3.28;68.95
22181;BME280;11256;50.830;12.834;2023-02-11T07:22:34;98963.59;;;3.31;68.92
22181;BME280;11256;50.830;12.834;2023-02-11T07:27:34;98988.72;;;3.37;68.90
22181;BME280;11256;50.830;12.834;2023-02-11T07:32:35;98966.91;;;3.33;68.67
22181;BME280;11256;50.830;12.834;2023-02-11T07:37:35;98983.81;;;3.40;68.83
22181;BME280;11256;50.830;12.834;2023-02-11T07:42:36;98993.72;;;3.46;69.13
22181;BME280;11256;50.830;12.834;2023-02-11T07:47:36;98976.41;;;3.49;68.93
22181;BME280;11256;50.830;12.834;2023-02-11T07:52:37;98985.91;;;3.51;69.04
22181;BME280;11256;50.830;12.834;2023-02-11T07:57:38;98986.72;;;3.52;69.31
22181;BME280;11256;50.830;12.834;2023-02-11T08:02:38;98988.78;;;3.63;69.13
22181;BME280;11256;50.830;12.834;2023-02-11T08:07:39;98981.56;;;3.70;68.96
22181;BME280;11256;50.830;12.834;2023-02-11T08:12:39;98979.31;;;3.67;68.76
22181;BME280;11256;50.830;12.834;2023-02-11T08:17:39;98984.28;;;3.76;68.93
22181;BME280;11256;50.830;12.834;2023-02-11T08:22:40;98969.63;;;3.79;69.30
22181;BME280;11256;50.830;12.834;2023-02-11T08:27:40;98979.53;;;3.85;69.44
22181;BME280;11256;50.830;12.834;2023-02-11T08:32:40;98970.06;;;3.89;69.75
22181;BME280;11256;50.830;12.834;2023-02-11T08:37:41;98980.34;;;3.92;69.47
22181;BME280;11256;50.830;12.834;2023-02-11T08:42:41;98983.88;;;3.99;69.47
22181;BME280;11256;50.830;12.834;2023-02-11T08:47:41;98976.22;;;3.96;69.39
22181;BME280;11256;50.830;12.834;2023-02-11T08:52:42;98975.59;;;4.07;69.48
22181;BME280;11256;50.830;12.834;2023-02-11T08:57:43;98983.84;;;4.12;69.28
22181;BME280;11256;50.830;12.834;2023-02-11T09:02:44;98985.91;;;4.16;69.45
22181;BME280;11256;50.830;12.834;2023-02-11T09:07:45;98991.72;;;4.20;69.83
22181;BME280;11256;50.830;12.834;2023-02-11T09:12:45;98972.50;;;4.29;69.89
22181;BME280;11256;50.830;12.834;2023-02-11T09:17:46;98982.00;;;4.32;69.96
22181;BME280;11256;50.830;12.834;2023-02-11T09:22:46;98973.94;;;4.32;69.88
22181;BME280;11256;50.830;12.834;2023-02-11T09:27:47;98987.56;;;4.37;70.14
22181;BME280;11256;50.830;12.834;2023-02-11T09:32:47;99000.72;;;4.45;69.92
22181;BME280;11256;50.830;12.834;2023-02-11T09:37:47;99008.16;;;4.56;70.17
22181;BME280;11256;50.830;12.834;2023-02-11T09:48:11;99025.09;;;4.63;69.75
22181;BME280;11256;50.830;12.834;2023-02-11T09:53:24;99044.28;;;4.66;70.77
22181;BME280;11256;50.830;12.834;2023-02-11T10:09:03;99039.09;;;4.65;70.46
22181;BME280;11256;50.830;12.834;2023-02-11T10:24:52;99019.44;;;4.84;70.87
22181;BME280;11256;50.830;12.834;2023-02-11T10:30:05;99025.44;;;4.86;70.26
22181;BME280;11256;50.830;12.834;2023-02-11T10:35:13;98998.78;;;4.84;70.54
22181;BME280;11256;50.830;12.834;2023-02-11T10:40:17;99015.06;;;4.96;70.64
22181;BME280;11256;50.830;12.834;2023-02-11T10:45:24;99012.13;;;5.04;70.58
22181;BME280;11256;50.830;12.834;2023-02-11T10:50:27;98993.94;;;5.06;70.81
22181;BME280;11256;50.830;12.834;2023-02-11T10:55:28;98981.13;;;5.08;70.59
22181;BME280;11256;50.830;12.834;2023-02-11T11:00:41;98992.84;;;5.20;70.48
22181;BME280;11256;50.830;12.834;2023-02-11T11:21:23;99017.69;;;5.53;70.75
22181;BME280;11256;50.830;12.834;2023-02-11T11:26:37;98998.47;;;5.56;70.64
22181;BME280;11256;50.830;12.834;2023-02-11T11:31:49;99008.69;;;5.72;70.94
22181;BME280;11256;50.830;12.834;2023-02-11T11:36:50;99014.66;;;5.74;70.91
22181;BME280;11256;50.830;12.834;2023-02-11T11:41:57;99002.66;;;5.76;70.26
22181;BME280;11256;50.830;12.834;2023-02-11T11:57:36;98983.53;;;5.91;70.57
22181;BME280;11256;50.830;12.834;2023-02-11T12:03:03;98996.72;;;5.99;70.49
22181;BME280;11256;50.830;12.834;2023-02-11T12:13:37;98967.75;;;6.01;70.10
22181;BME280;11256;50.830;12.834;2023-02-11T12:24:11;99000.94;;;6.13;70.33
22181;BME280;11256;50.830;12.834;2023-02-11T12:29:21;99001.38;;;6.10;70.21
22181;BME280;11256;50.830;12.834;2023-02-11T12:35:15;99011.56;;;6.08;70.25
22181;BME280;11256;50.830;12.834;2023-02-11T12:56:07;98995.16;;;6.16;70.29
22181;BME280;11256;50.830;12.834;2023-02-11T13:01:33;98994.31;;;6.15;70.14
22181;BME280;11256;50.830;12.834;2023-02-11T13:06:47;98978.84;;;6.11;69.79
22181;BME280;11256;50.830;12.834;2023-02-11T13:11:50;98979.63;;;6.11;69.79
22181;BME280;11256;50.830;12.834;2023-02-11T13:16:54;98975.09;;;6.12;69.61
22181;BME280;11256;50.830;12.834;2023-02-11T13:22:15;98984.63;;;6.08;69.72
22181;BME280;11256;50.830;12.834;2023-02-11T13:27:23;98997.88;;;6.09;70.05
22181;BME280;11256;50.830;12.834;2023-02-11T13:37:56;98984.63;;;6.08;70.17
22181;BME280;11256;50.830;12.834;2023-02-11T13:42:59;98988.63;;;5.99;69.79
22181;BME280;11256;50.830;12.834;2023-02-11T13:48:04;98989.44;;;6.06;70.05
22181;BME280;11256;50.830;12.834;2023-02-11T13:53:05;98973.53;;;5.98;69.62
22181;BME280;11256;50.830;12.834;2023-02-11T14:08:30;98978.13;;;5.97;70.08
22181;BME280;11256;50.830;12.834;2023-02-11T14:23:55;98983.03;;;6.00;69.82
22181;BME280;11256;50.830;12.834;2023-02-11T14:39:34;98969.44;;;5.95;70.42
22181;BME280;11256;50.830;12.834;2023-02-11T14:44:40;98984.97;;;5.93;69.98
22181;BME280;11256;50.830;12.834;2023-02-11T14:49:40;98994.19;;;6.04;70.21
22181;BME280;11256;50.830;12.834;2023-02-11T14:54:42;98993.00;;;6.00;70.64
22181;BME280;11256;50.830;12.834;2023-02-11T14:59:58;98976.31;;;5.91;70.06
22181;BME280;11256;50.830;12.834;2023-02-11T15:10:41;99002.94;;;5.99;69.89
22181;BME280;11256;50.830;12.834;2023-02-11T15:15:43;98980.69;;;5.86;69.91
22181;BME280;11256;50.830;12.834;2023-02-11T15:20:46;99000.94;;;5.88;70.13
22181;BME280;11256;50.830;12.834;2023-02-11T15:25:46;98998.03;;;5.90;70.37
22181;BME280;11256;50.830;12.834;2023-02-11T15:31:11;99011.84;;;6.00;70.57
22181;BME280;11256;50.830;12.834;2023-02-11T15:36:13;99017.66;;;5.90;70.29
22181;BME280;11256;50.830;12.834;2023-02-11T15:41:34;99020.81;;;5.87;70.21
22181;BME280;11256;50.830;12.834;2023-02-11T15:46:37;99018.28;;;5.92;70.63
22181;BME280;11256;50.830;12.834;2023-02-11T15:51:38;99026.38;;;5.92;70.97
22181;BME280;11256;50.830;12.834;2023-02-11T15:56:42;99024.94;;;5.90;70.66
22181;BME280;11256;50.830;12.834;2023-02-11T16:01:44;99025.34;;;5.87;70.75
22181;BME280;11256;50.830;12.834;2023-02-11T16:06:47;99015.88;;;5.78;70.57
22181;BME280;11256;50.830;12.834;2023-02-11T16:16:50;99019.38;;;5.78;71.09
22181;BME280;11256;50.830;12.834;2023-02-11T16:21:54;99030.75;;;5.87;71.06
22181;BME280;11256;50.830;12.834;2023-02-11T16:27:00;99023.53;;;5.81;70.50
22181;BME280;11256;50.830;12.834;2023-02-11T16:32:19;99046.69;;;5.82;71.11
22181;BME280;11256;50.830;12.834;2023-02-11T16:37:20;99046.50;;;5.83;71.18
22181;BME280;11256;50.830;12.834;2023-02-11T16:42:20;99047.31;;;5.84;71.38
22181;BME280;11256;50.830;12.834;2023-02-11T16:47:23;99046.50;;;5.77;71.40
22181;BME280;11256;50.830;12.834;2023-02-11T16:52:24;99060.56;;;5.79;70.99
22181;BME280;11256;50.830;12.834;2023-02-11T16:57:25;99060.16;;;5.82;71.09
22181;BME280;11256;50.830;12.834;2023-02-11T17:02:28;99066.16;;;5.84;70.99
22181;BME280;11256;50.830;12.834;2023-02-11T17:07:29;99073.00;;;5.80;71.47
22181;BME280;11256;50.830;12.834;2023-02-11T17:12:30;99070.47;;;5.78;71.65
22181;BME280;11256;50.830;12.834;2023-02-11T17:17:30;99073.84;;;5.74;72.00
22181;BME280;11256;50.830;12.834;2023-02-11T17:22:32;99078.63;;;5.72;71.85
22181;BME280;11256;50.830;12.834;2023-02-11T17:27:32;99088.25;;;5.79;72.00
22181;BME280;11256;50.830;12.834;2023-02-11T17:32:33;99089.53;;;5.83;72.30
22181;BME280;11256;50.830;12.834;2023-02-11T17:37:33;99092.84;;;5.79;72.58
22181;BME280;11256;50.830;12.834;2023-02-11T17:42:34;99098.22;;;5.79;72.14
22181;BME280;11256;50.830;12.834;2023-02-11T17:47:34;99104.22;;;5.74;72.34
22181;BME280;11256;50.830;12.834;2023-02-11T17:52:35;99101.78;;;5.73;72.91
22181;BME280;11256;50.830;12.834;2023-02-11T17:57:37;99105.72;;;5.70;73.85
22181;BME280;11256;50.830;12.834;2023-02-11T18:02:37;99104.47;;;5.73;73.73
22181;BME280;11256;50.830;12.834;2023-02-11T18:07:37;99106.78;;;5.63;73.75
22181;BME280;11256;50.830;12.834;2023-02-11T18:12:38;99108.00;;;5.67;73.65
22181;BME280;11256;50.830;12.834;2023-02-11T18:17:38;99097.84;;;5.69;73.75
22181;BME280;11256;50.830;12.834;2023-02-11T18:22:40;99097.06;;;5.62;74.31
22181;BME280;11256;50.830;12.834;2023-02-11T18:27:43;99090.81;;;5.68;73.93
22181;BME280;11256;50.830;12.834;2023-02-11T18:32:44;99108.41;;;5.64;74.90
22181;BME280;11256;50.830;12.834;2023-02-11T18:37:44;99108.00;;;5.67;74.82
22181;BME280;11256;50.830;12.834;2023-02-11T18:42:45;99118.13;;;5.65;74.43
22181;BME280;11256;50.830;12.834;2023-02-11T18:47:45;99113.81;;;5.64;74.69
22181;BME280;11256;50.830;12.834;2023-02-11T18:52:45;99113.59;;;5.59;75.00
22181;BME280;11256;50.830;12.834;2023-02-11T18:57:46;99116.91;;;5.61;74.43
22181;BME280;11256;50.830;12.834;2023-02-11T19:02:46;99123.56;;;5.58;74.91
22181;BME280;11256;50.830;12.834;2023-02-11T19:07:46;99148.16;;;5.62;74.47
22181;BME280;11256;50.830;12.834;2023-02-11T19:12:47;99135.13;;;5.52;74.58
22181;BME280;11256;50.830;12.834;2023-02-11T19:17:47;99135.97;;;5.53;74.98
22181;BME280;11256;50.830;12.834;2023-02-11T19:22:48;99141.94;;;5.55;75.63
22181;BME280;11256;50.830;12.834;2023-02-11T19:27:48;99146.31;;;5.56;75.36
22181;BME280;11256;50.830;12.834;2023-02-11T19:32:48;99163.25;;;5.63;75.12
22181;BME280;11256;50.830;12.834;2023-02-11T19:37:51;99174.84;;;5.57;75.04
22181;BME280;11256;50.830;12.834;2023-02-11T19:42:51;99176.91;;;5.55;75.03
22181;BME280;11256;50.830;12.834;2023-02-11T19:47:55;99192.22;;;5.54;75.16
22181;BME280;11256;50.830;12.834;2023-02-11T19:52:56;99195.72;;;5.55;75.11
22181;BME280;11256;50.830;12.834;2023-02-11T19:57:56;99193.47;;;5.52;75.41
22181;BME280;11256;50.830;12.834;2023-02-11T20:02:56;99198.06;;;5.45;75.15
22181;BME280;11256;50.830;12.834;2023-02-11T20:07:57;99226.53;;;5.52;75.57
22181;BME280;11256;50.830;12.834;2023-02-11T20:12:57;99237.53;;;5.51;75.43
22181;BME280;11256;50.830;12.834;2023-02-11T20:17:57;99222.00;;;5.46;75.14
22181;BME280;11256;50.830;12.834;2023-02-11T20:22:58;99244.56;;;5.52;75.43
22181;BME280;11256;50.830;12.834;2023-02-11T20:27:58;99249.28;;;5.50;75.44
22181;BME280;11256;50.830;12.834;2023-02-11T20:32:58;99256.34;;;5.51;75.44
22181;BME280;11256;50.830;12.834;2023-02-11T20:37:58;99254.25;;;5.53;75.44
22181;BME280;11256;50.830;12.834;2023-02-11T20:42:59;99247.25;;;5.45;75.69
22181;BME280;11256;50.830;12.834;2023-02-11T20:48:00;99251.38;;;5.48;75.76
22181;BME280;11256;50.830;12.834;2023-02-11T20:53:00;99257.16;;;5.58;75.97
22181;BME280;11256;50.830;12.834;2023-02-11T20:58:00;99250.72;;;5.59;76.72
22181;BME280;11256;50.830;12.834;2023-02-11T21:03:01;99247.63;;;5.62;76.57
22181;BME280;11256;50.830;12.834;2023-02-11T21:08:02;99254.03;;;5.61;76.50
22181;BME280;11256;50.830;12.834;2023-02-11T21:13:03;99247.63;;;5.55;76.88
22181;BME280;11256;50.830;12.834;2023-02-11T21:18:03;99241.03;;;5.58;76.58
22181;BME280;11256;50.830;12.834;2023-02-11T21:23:03;99249.28;;;5.56;76.95
22181;BME280;11256;50.830;12.834;2023-02-11T21:28:04;99270.34;;;5.72;77.23
22181;BME280;11256;50.830;12.834;2023-02-11T21:33:04;99277.63;;;5.72;76.91
22181;BME280;11256;50.830;12.834;2023-02-11T21:38:05;99276.97;;;5.76;77.34
22181;BME280;11256;50.830;12.834;2023-02-11T21:43:05;99281.50;;;5.76;76.75
22181;BME280;11256;50.830;12.834;2023-02-11T21:48:06;99289.81;;;5.81;77.54
22181;BME280;11256;50.830;12.834;2023-02-11T21:53:06;99287.94;;;5.75;77.77
22181;BME280;11256;50.830;12.834;2023-02-11T21:58:07;99297.69;;;5.82;77.60
22181;BME280;11256;50.830;12.834;2023-02-11T22:03:09;99290.22;;;5.78;77.67
22181;BME280;11256;50.830;12.834;2023-02-11T22:08:09;99312.16;;;5.81;77.89
22181;BME280;11256;50.830;12.834;2023-02-11T22:13:10;99312.56;;;5.85;77.29
22181;BME280;11256;50.830;12.834;2023-02-11T22:18:10;99313.81;;;5.82;77.72
22181;BME280;11256;50.830;12.834;2023-02-11T22:23:10;99321.69;;;5.84;77.53
22181;BME280;11256;50.830;12.834;2023-02-11T22:28:11;99329.09;;;5.88;77.38
22181;BME280;11256;50.830;12.834;2023-02-11T22:33:11;99329.09;;;5.95;78.38
22181;BME280;11256;50.830;12.834;2023-02-11T22:38:11;99326.63;;;5.93;78.42
22181;BME280;11256;50.830;12.834;2023-02-11T22:43:12;99334.69;;;5.87;78.29
22181;BME280;11256;50.830;12.834;2023-02-11T22:48:12;99342.13;;;5.98;79.18
22181;BME280;11256;50.830;12.834;2023-02-11T22:53:12;99331.16;;;5.99;79.31
22181;BME280;11256;50.830;12.834;2023-02-11T22:58:13;99348.53;;;5.97;78.95
22181;BME280;11256;50.830;12.834;2023-02-11T23:03:13;99346.47;;;5.99;78.75
22181;BME280;11256;50.830;12.834;2023-02-11T23:08:14;99358.91;;;6.00;78.90
22181;BME280;11256;50.830;12.834;2023-02-11T23:13:14;99359.72;;;6.00;78.80
22181;BME280;11256;50.830;12.834;2023-02-11T23:18:15;99350.19;;;5.98;78.89
22181;BME280;11256;50.830;12.834;2023-02-11T23:23:15;99355.56;;;5.98;78.91
22181;BME280;11256;50.830;12.834;2023-02-11T23:28:15;99353.09;;;6.03;79.15
22181;BME280;11256;50.830;12.834;2023-02-11T23:33:16;99373.56;;;6.10;79.22
22181;BME280;11256;50.830;12.834;2023-02-11T23:38:16;99362.59;;;6.05;79.15
22181;BME280;11256;50.830;12.834;2023-02-11T23:43:16;99365.09;;;6.13;78.96
22181;BME280;11256;50.830;12.834;2023-02-11T23:48:17;99352.66;;;6.06;79.35
22181;BME280;11256;50.830;12.834;2023-02-11T23:53:17;99369.63;;;6.13;78.96
22181;BME280;11256;50.830;12.834;2023-02-11T23:58:18;99362.81;;;6.04;79.43
